Time;durP1;ratioP1;P1;durP2;ratioP2;P2;SDS_P1;SDS_P2;PMS_P1;PMS_P2;Temp;Humidity;BMP_temperature;BMP_pressure;BME280_temperature;BME280_humidity;BME280_pressure;Samples;Min_cycle;Max_cycle;Signal;HPM_P1;HPM_P2
2021/11/03 00:01:36;;;;;;;44.88;29.02;;;;;;;5.98;99.04;98933.63;1761344;81;21518;-90
2021/11/03 00:04:05;;;;;;;45.08;27.75;;;;;;;5.98;99.05;98932.32;1748094;82;21033;-91
2021/11/03 00:06:32;;;;;;;51.60;30.97;;;;;;;5.98;98.83;98944.10;1770587;81;20957;-90
2021/11/03 00:09:04;;;;;;;58.38;34.27;;;;;;;5.96;98.74;98941.27;1761670;81;20949;-90
2021/11/03 00:11:32;;;;;;;62.65;39.23;;;;;;;5.94;98.68;98942.67;1702986;82;21010;-90
2021/11/03 00:13:59;;;;;;;65.67;39.85;;;;;;;5.92;98.64;98946.31;1710729;82;20974;-90
2021/11/03 00:16:26;;;;;;;56.15;38.75;;;;;;;5.89;98.64;98946.09;1760563;81;21539;-91
2021/11/03 00:18:53;;;;;;;47.95;31.60;;;;;;;5.88;98.73;98947.86;1749475;80;21531;-91
2021/11/03 00:21:20;;;;;;;46.05;28.57;;;;;;;5.90;98.94;98945.14;1757879;81;21412;-91
2021/11/03 00:23:47;;;;;;;48.87;32.35;;;;;;;5.91;98.90;98947.28;1760699;81;20985;-90
2021/11/03 00:26:14;;;;;;;41.10;28.15;;;;;;;5.92;99.14;98946.31;1749293;81;21030;-90
2021/11/03 00:28:41;;;;;;;44.18;30.32;;;;;;;5.94;99.20;98951.01;1758711;81;21590;-90
2021/11/03 00:31:08;;;;;;;44.77;29.63;;;;;;;5.97;99.29;98949.47;1751964;81;21534;-91
2021/11/03 00:33:35;;;;;;;49.00;31.17;;;;;;;5.99;99.21;98959.34;1764894;81;20946;-90
2021/11/03 00:36:03;;;;;;;43.90;29.37;;;;;;;5.99;99.16;98961.50;1756532;81;21337;-90
2021/11/03 00:38:30;;;;;;;45.58;31.87;;;;;;;6.01;99.12;98963.52;1746612;81;21013;-91
2021/11/03 00:40:57;;;;;;;44.20;28.85;;;;;;;6.01;98.95;98967.44;1753795;81;21001;-91
2021/11/03 00:43:24;;;;;;;44.33;31.07;;;;;;;6.02;99.03;98970.89;1759559;81;20985;-91
2021/11/03 00:45:52;;;;;;;47.30;32.35;;;;;;;6.02;98.95;98967.82;1754984;81;21466;-91
2021/11/03 00:48:20;;;;;;;47.67;30.65;;;;;;;6.04;99.03;98961.98;1758720;80;21475;-91
2021/11/03 00:50:48;;;;;;;47.53;31.50;;;;;;;6.04;98.94;98966.38;1722171;82;21034;-90
2021/11/03 00:53:16;;;;;;;49.27;29.00;;;;;;;6.03;98.81;98962.94;1768397;81;21405;-91
2021/11/03 00:55:43;;;;;;;40.95;28.00;;;;;;;6.04;98.76;98961.98;1730132;82;21469;-91
2021/11/03 00:58:11;;;;;;;42.00;28.23;;;;;;;6.03;98.64;98961.62;1725930;82;21480;-90
2021/11/03 01:00:38;;;;;;;39.88;28.35;;;;;;;6.01;98.47;98965.30;1748791;81;21056;-91
2021/11/03 01:03:06;;;;;;;38.75;27.93;;;;;;;5.99;98.23;98963.27;1761666;81;21006;-91
2021/11/03 01:05:38;;;;;;;40.70;28.10;;;;;;;5.94;98.09;98963.63;1748702;81;21061;-91
2021/11/03 01:08:03;;;;;;;44.67;28.60;;;;;;;5.90;97.90;98962.16;1748014;82;20998;-91
2021/11/03 01:10:30;;;;;;;41.13;28.50;;;;;;;5.85;97.82;98966.41;1748020;81;21304;-91
2021/11/03 01:12:57;;;;;;;39.33;25.40;;;;;;;5.80;97.79;98966.41;1725320;82;21257;-91
2021/11/03 01:15:25;;;;;;;40.40;25.75;;;;;;;5.77;97.85;98964.02;1764910;81;21041;-90
2021/11/03 01:17:56;;;;;;;38.40;25.43;;;;;;;5.72;97.42;98966.96;1755362;81;21009;-91
2021/11/03 01:20:25;;;;;;;38.80;24.80;;;;;;;5.68;97.69;98976.47;1748540;82;21004;-90
2021/11/03 01:22:54;;;;;;;35.52;21.90;;;;;;;5.63;97.53;98976.83;1751005;81;21021;-90
2021/11/03 01:25:24;;;;;;;39.60;25.10;;;;;;;5.59;97.51;98968.81;1760922;81;21397;-90
2021/11/03 01:27:51;;;;;;;37.33;23.83;;;;;;;5.53;97.43;98974.52;1748764;81;21001;-90
2021/11/03 01:30:22;;;;;;;38.75;24.52;;;;;;;5.48;97.21;98975.32;1748726;81;21024;-90
2021/11/03 01:32:51;;;;;;;40.88;25.52;;;;;;;5.44;97.10;98981.73;1751328;81;21467;-90
2021/11/03 01:35:18;;;;;;;37.17;24.20;;;;;;;5.38;97.00;98972.54;1779322;81;20990;-90
2021/11/03 01:37:46;;;;;;;39.67;26.37;;;;;;;5.31;97.06;98978.69;1758122;81;20985;-90
2021/11/03 01:40:18;;;;;;;42.95;26.17;;;;;;;5.26;97.03;98978.65;1773730;81;21452;-90
2021/11/03 01:42:45;;;;;;;39.73;25.97;;;;;;;5.22;97.18;98975.90;1755307;81;20978;-90
2021/11/03 01:45:16;;;;;;;45.83;26.52;;;;;;;5.18;97.32;98979.21;1747848;81;20988;-90
2021/11/03 01:47:51;;;;;;;42.45;26.75;;;;;;;5.14;97.63;98983.83;1748876;81;21037;-90
2021/11/03 01:50:41;;;;;;;39.73;25.43;;;;;;;5.12;97.49;98977.86;1748410;82;21017;-90
2021/11/03 01:53:16;;;;;;;42.13;24.00;;;;;;;5.09;97.43;98976.77;1741238;82;20990;-90
2021/11/03 01:55:54;;;;;;;42.60;25.10;;;;;;;5.07;97.86;98977.38;1748647;81;21049;-90
2021/11/03 01:58:26;;;;;;;42.80;26.45;;;;;;;5.05;97.93;98976.63;1748682;82;21085;-90
2021/11/03 02:00:56;;;;;;;43.00;24.23;;;;;;;5.04;97.94;98979.37;1749208;81;21469;-90
2021/11/03 02:03:28;;;;;;;49.73;27.50;;;;;;;5.01;97.63;98983.03;1748627;82;21658;-90
2021/11/03 02:06:09;;;;;;;41.35;25.57;;;;;;;4.99;97.69;98979.67;1748409;81;21056;-89
2021/11/03 02:08:41;;;;;;;37.08;23.60;;;;;;;4.98;97.62;98976.71;1747733;82;20958;-90
2021/11/03 02:11:09;;;;;;;37.67;24.10;;;;;;;4.96;97.69;98975.14;1761841;81;20954;-90
2021/11/03 02:13:39;;;;;;;40.05;25.43;;;;;;;4.92;97.38;98974.05;1779854;80;20930;-90
2021/11/03 02:16:10;;;;;;;40.78;25.60;;;;;;;4.87;97.54;98974.86;1750945;80;21526;-90
2021/11/03 02:18:38;;;;;;;37.65;23.87;;;;;;;4.84;97.29;98975.55;1748796;81;21354;-90
2021/11/03 02:21:08;;;;;;;36.50;24.25;;;;;;;4.79;96.96;98977.64;1748386;81;21053;-90
2021/11/03 02:23:56;;;;;;;41.28;23.70;;;;;;;4.73;96.83;98969.75;1748541;82;21010;-90
2021/11/03 02:26:37;;;;;;;35.83;23.67;;;;;;;4.68;97.10;98971.39;1739230;81;20994;-90
2021/11/03 02:29:11;;;;;;;33.50;23.50;;;;;;;4.65;97.11;98974.22;1737934;82;21066;-90
2021/11/03 02:31:48;;;;;;;37.13;22.10;;;;;;;4.61;96.89;98974.55;1747095;81;20946;-90
2021/11/03 02:34:28;;;;;;;35.78;21.93;;;;;;;4.58;96.85;98964.31;1762453;80;21087;-90
2021/11/03 02:37:04;;;;;;;34.80;22.02;;;;;;;4.56;97.11;98960.48;1748586;81;21432;-90
2021/11/03 02:39:39;;;;;;;35.50;22.55;;;;;;;4.51;96.69;98956.06;1688687;84;21005;-90
2021/11/03 02:42:08;;;;;;;33.78;20.77;;;;;;;4.44;96.95;98954.34;1706959;84;20979;-90
2021/11/03 02:44:38;;;;;;;30.77;20.92;;;;;;;4.40;96.79;98959.87;1703079;84;20958;-90
2021/11/03 02:47:06;;;;;;;35.65;20.08;;;;;;;4.37;96.82;98956.16;1712180;83;21041;-90
2021/11/03 02:49:36;;;;;;;36.58;21.20;;;;;;;4.32;96.69;98947.82;1741264;82;21050;-90
2021/11/03 02:52:17;;;;;;;30.40;20.30;;;;;;;4.26;96.67;98952.98;1741833;82;21029;-90
2021/11/03 02:54:44;;;;;;;34.05;19.45;;;;;;;4.25;96.84;98956.55;1716234;82;20976;-90
2021/11/03 02:57:11;;;;;;;29.35;18.85;;;;;;;4.19;96.87;98956.48;1712616;84;21016;-90
2021/11/03 02:59:38;;;;;;;30.52;18.95;;;;;;;4.16;96.57;98959.30;1694775;82;21032;-90
2021/11/03 03:02:06;;;;;;;28.15;18.12;;;;;;;4.12;96.76;98964.84;1706040;82;20964;-90
2021/11/03 03:04:38;;;;;;;24.15;16.55;;;;;;;4.07;96.62;98962.53;1734689;83;21023;-90
2021/11/03 03:07:08;;;;;;;29.65;17.80;;;;;;;4.02;96.96;98962.02;1734915;83;20998;-90
2021/11/03 03:09:36;;;;;;;25.90;17.02;;;;;;;3.97;96.91;98968.84;1734686;83;21010;-90
2021/11/03 03:12:07;;;;;;;29.32;18.05;;;;;;;3.94;97.14;98966.43;1725998;82;20978;-90
2021/11/03 03:14:38;;;;;;;29.65;19.48;;;;;;;3.91;96.99;98961.89;1737855;82;21291;-90
2021/11/03 03:17:09;;;;;;;31.90;19.42;;;;;;;3.89;96.87;98964.61;1741477;82;21049;-90
2021/11/03 03:19:37;;;;;;;33.70;18.90;;;;;;;3.84;96.39;98962.77;1741992;82;21033;-89
2021/11/03 03:22:04;;;;;;;40.12;21.55;;;;;;;3.80;96.53;98965.69;1741804;82;20951;-90
2021/11/03 03:24:31;;;;;;;36.25;21.48;;;;;;;3.77;96.91;98968.03;1741604;82;21048;-90
2021/11/03 03:26:58;;;;;;;40.95;24.60;;;;;;;3.73;96.63;98968.70;1741834;82;21528;-90
2021/11/03 03:29:25;;;;;;;34.92;21.25;;;;;;;3.71;96.49;98965.34;1742052;82;21034;-90
2021/11/03 03:31:52;;;;;;;35.58;20.23;;;;;;;3.65;96.29;98960.56;1696313;82;20973;-90
2021/11/03 03:34:24;;;;;;;38.67;20.75;;;;;;;3.63;96.73;98971.55;1693300;82;20986;-90
2021/11/03 03:36:53;;;;;;;34.40;21.85;;;;;;;3.61;96.88;98971.28;1703349;82;21024;-89
2021/11/03 03:39:23;;;;;;;34.45;20.37;;;;;;;3.58;96.84;98973.61;1720882;82;21049;-90
2021/11/03 03:41:59;;;;;;;32.13;18.87;;;;;;;3.56;96.88;98967.67;1707597;82;21469;-90
2021/11/03 03:44:26;;;;;;;33.75;20.25;;;;;;;3.56;96.88;98974.20;1718393;82;20994;-90
2021/11/03 03:46:53;;;;;;;30.10;18.27;;;;;;;3.54;96.91;98983.88;1706991;82;21054;-90
2021/11/03 03:49:20;;;;;;;30.30;19.07;;;;;;;3.51;96.93;98986.69;1734614;82;21074;-89
2021/11/03 03:51:48;;;;;;;30.88;19.75;;;;;;;3.48;96.85;98994.70;1715241;82;21033;-90
2021/11/03 03:54:16;;;;;;;32.13;19.62;;;;;;;3.45;96.81;98994.43;1692734;84;21052;-90
2021/11/03 03:56:43;;;;;;;34.25;20.45;;;;;;;3.43;96.81;98998.09;1705979;82;21528;-90
2021/11/03 03:59:10;;;;;;;36.35;20.55;;;;;;;3.38;96.75;99002.75;1708097;82;21472;-90
2021/11/03 04:01:38;;;;;;;34.78;21.05;;;;;;;3.34;96.85;99011.25;1697618;82;21040;-89
2021/11/03 04:04:08;;;;;;;35.38;20.77;;;;;;;3.30;96.76;99013.69;1731283;82;20997;-90
2021/11/03 04:06:35;;;;;;;35.58;22.00;;;;;;;3.25;96.83;99015.27;1741067;82;21472;-90
2021/11/03 04:09:04;;;;;;;37.60;21.33;;;;;;;3.25;96.98;99013.95;1741941;82;21595;-89
2021/11/03 04:11:31;;;;;;;40.15;24.77;;;;;;;3.24;97.16;99022.72;1718628;82;21038;-89
2021/11/03 04:13:59;;;;;;;38.78;25.72;;;;;;;3.24;97.33;99029.24;1696283;82;21928;-89
2021/11/03 04:16:26;;;;;;;38.42;23.35;;;;;;;3.25;97.46;99027.47;1719677;82;21022;-90
2021/11/03 04:18:53;;;;;;;39.15;23.98;;;;;;;3.24;97.38;99018.81;1739611;82;20942;-89
2021/11/03 04:21:20;;;;;;;36.60;23.40;;;;;;;3.24;97.48;99018.81;1734473;82;21010;-90
2021/11/03 04:23:47;;;;;;;37.08;23.85;;;;;;;3.24;97.49;99022.72;1740569;82;20985;-90
2021/11/03 04:26:22;;;;;;;37.17;23.98;;;;;;;3.25;97.51;99025.69;1741336;82;21053;-89
2021/11/03 04:28:51;;;;;;;38.60;26.48;;;;;;;3.23;97.35;99022.84;1742052;82;21025;-90
2021/11/03 04:31:20;;;;;;;41.77;25.23;;;;;;;3.20;97.28;99018.64;1740434;82;21002;-90
2021/11/03 04:33:51;;;;;;;33.60;23.15;;;;;;;3.19;97.30;99018.72;1737524;82;21503;-90
2021/11/03 04:36:20;;;;;;;36.50;22.45;;;;;;;3.17;97.32;99014.92;1737575;82;21058;-90
2021/11/03 04:38:49;;;;;;;45.48;27.20;;;;;;;3.17;97.17;99016.70;1735780;82;21053;-90
2021/11/03 04:41:16;;;;;;;42.85;27.73;;;;;;;3.16;97.09;99005.88;1710219;82;21409;-90
2021/11/03 04:43:45;;;;;;;40.98;25.65;;;;;;;3.12;97.06;99015.66;1712556;84;21478;-89
2021/11/03 04:46:12;;;;;;;46.02;27.48;;;;;;;3.10;97.31;99017.55;1712169;83;20989;-90
2021/11/03 04:48:39;;;;;;;42.70;25.02;;;;;;;3.09;97.29;99023.67;1701802;82;20979;-90
2021/11/03 04:51:05;;;;;;;48.92;29.98;;;;;;;3.09;97.12;99020.23;1692813;82;21469;-90
2021/11/03 04:53:32;;;;;;;45.78;25.40;;;;;;;3.05;96.95;99018.30;1722505;82;21001;-90
2021/11/03 04:56:03;;;;;;;46.63;26.60;;;;;;;3.04;97.06;99017.93;1734465;83;21002;-90
2021/11/03 04:58:30;;;;;;;44.03;26.75;;;;;;;3.01;97.08;99016.34;1734075;82;21532;-90
2021/11/03 05:01:00;;;;;;;47.38;26.70;;;;;;;3.00;97.07;99015.16;1728271;82;21003;-90
2021/11/03 05:03:27;;;;;;;42.15;25.02;;;;;;;2.98;97.22;99012.63;1723992;82;21457;-89
2021/11/03 05:05:56;;;;;;;38.50;25.15;;;;;;;2.97;97.23;99014.04;1716339;82;21460;-90
2021/11/03 05:08:24;;;;;;;37.88;23.57;;;;;;;2.96;97.18;99017.55;1741962;82;21468;-90
2021/11/03 05:10:51;;;;;;;37.00;23.05;;;;;;;2.95;97.42;99018.02;1741407;82;21071;-90
2021/11/03 05:13:18;;;;;;;38.95;22.52;;;;;;;2.94;97.31;99020.73;1741913;82;20978;-90
2021/11/03 05:15:45;;;;;;;37.17;21.60;;;;;;;2.91;97.26;99023.06;1741335;82;20982;-90
2021/11/03 05:18:12;;;;;;;30.50;19.65;;;;;;;2.89;97.29;99025.38;1741562;82;20986;-89
2021/11/03 05:20:39;;;;;;;36.17;20.85;;;;;;;2.86;97.21;99025.57;1741311;82;21053;-89
2021/11/03 05:23:07;;;;;;;33.55;20.62;;;;;;;2.82;97.31;99027.06;1720054;82;21594;-89
2021/11/03 05:25:34;;;;;;;34.18;20.08;;;;;;;2.82;97.39;99024.92;1719719;82;21464;-90
2021/11/03 05:28:01;;;;;;;30.77;19.65;;;;;;;2.79;97.28;99024.64;1731910;82;21009;-89
2021/11/03 05:30:29;;;;;;;33.18;21.05;;;;;;;2.75;97.07;99025.77;1730025;82;21053;-89
2021/11/03 05:32:58;;;;;;;40.17;24.82;;;;;;;2.72;97.28;99029.86;1712359;84;20994;-89
2021/11/03 05:35:25;;;;;;;44.73;26.77;;;;;;;2.71;97.50;99036.01;1712321;84;21049;-90
2021/11/03 05:37:53;;;;;;;43.83;26.07;;;;;;;2.71;97.94;99040.39;1712360;84;21054;-89
2021/11/03 05:40:25;;;;;;;38.95;23.75;;;;;;;2.74;98.09;99041.50;1712479;84;21009;-90
2021/11/03 05:42:52;;;;;;;41.15;23.57;;;;;;;2.75;98.26;99041.40;1712544;84;21057;-89
2021/11/03 05:45:20;;;;;;;40.85;24.55;;;;;;;2.77;98.21;99043.45;1712555;84;21009;-89
2021/11/03 05:47:47;;;;;;;43.05;24.37;;;;;;;2.78;98.14;99041.21;1712420;84;21018;-90
2021/11/03 05:50:20;;;;;;;40.03;23.12;;;;;;;2.79;98.17;99040.27;1712478;84;21089;-90
2021/11/03 05:52:48;;;;;;;44.38;28.95;;;;;;;2.79;98.05;99038.97;1712576;84;21614;-89
2021/11/03 05:55:15;;;;;;;44.35;28.55;;;;;;;2.79;97.90;99045.95;1712478;84;21473;-89
2021/11/03 05:57:43;;;;;;;48.33;31.12;;;;;;;2.78;98.23;99050.33;1712577;84;21041;-89
2021/11/03 06:00:24;;;;;;;48.30;29.05;;;;;;;2.77;98.04;99053.88;1712554;84;21543;-89
2021/11/03 06:02:51;;;;;;;44.03;29.48;;;;;;;2.77;98.34;99051.27;1712292;83;21065;-90
2021/11/03 06:05:19;;;;;;;46.08;29.63;;;;;;;2.79;98.36;99062.41;1712505;84;21024;-89
2021/11/03 06:07:56;;;;;;;41.02;27.07;;;;;;;2.81;98.40;99061.03;1712532;84;21033;-89
2021/11/03 06:10:33;;;;;;;40.92;26.77;;;;;;;2.81;98.30;99060.56;1712370;84;21543;-91
2021/11/03 06:13:01;;;;;;;38.38;26.95;;;;;;;2.82;98.33;99062.70;1712324;83;21014;-91
2021/11/03 06:15:32;;;;;;;38.02;24.18;;;;;;;2.84;98.25;99069.14;1712562;84;21049;-91
2021/11/03 06:18:01;;;;;;;46.03;28.60;;;;;;;2.84;98.11;99073.05;1712832;84;21023;-91
2021/11/03 06:20:29;;;;;;;54.55;35.78;;;;;;;2.84;98.22;99073.05;1712296;84;21332;-91
2021/11/03 06:22:56;;;;;;;48.52;29.67;;;;;;;2.85;98.31;99081.23;1712556;84;21072;-91
2021/11/03 06:25:25;;;;;;;49.00;32.00;;;;;;;2.86;98.31;99086.33;1712405;84;21005;-88
2021/11/03 06:27:55;;;;;;;49.23;32.40;;;;;;;2.85;98.19;99087.27;1712613;84;21481;-88
2021/11/03 06:30:28;;;;;;;55.58;31.75;;;;;;;2.87;98.24;99088.03;1712325;84;21038;-89
2021/11/03 06:32:55;;;;;;;53.05;32.80;;;;;;;2.87;98.17;99084.59;1712580;84;21029;-89
2021/11/03 06:35:25;;;;;;;56.92;34.55;;;;;;;2.88;98.25;99089.69;1712404;84;21010;-90
2021/11/03 06:37:53;;;;;;;66.97;36.48;;;;;;;2.88;98.26;99088.39;1712556;84;21049;-90
2021/11/03 06:40:24;;;;;;;58.65;35.23;;;;;;;2.89;98.32;99087.92;1712437;84;21065;-90
2021/11/03 06:42:52;;;;;;;61.88;34.60;;;;;;;2.91;98.40;99093.89;1712623;84;21057;-90
2021/11/03 06:45:20;;;;;;;61.40;34.23;;;;;;;2.92;98.51;99094.25;1727911;81;20978;-90
2021/11/03 06:47:49;;;;;;;86.60;55.10;;;;;;;2.94;98.59;99100.22;1730691;81;20976;-90
2021/11/03 06:50:21;;;;;;;137.65;96.28;;;;;;;2.96;98.55;99103.11;1712935;81;21052;-90
2021/11/03 06:52:50;;;;;;;107.20;72.97;;;;;;;2.99;98.70;99104.67;1712016;84;21048;-89
2021/11/03 06:55:18;;;;;;;93.70;65.80;;;;;;;3.01;98.79;99105.42;1712354;84;20969;-89
2021/11/03 06:57:46;;;;;;;85.75;58.58;;;;;;;3.03;98.91;99098.36;1712262;84;21056;-90
2021/11/03 07:00:19;;;;;;;62.50;43.15;;;;;;;3.06;99.13;99098.17;1712230;84;21012;-89
2021/11/03 07:02:46;;;;;;;64.87;43.73;;;;;;;3.11;99.30;99100.48;1715902;83;21547;-89
2021/11/03 07:05:13;;;;;;;46.85;31.00;;;;;;;3.16;99.60;99103.63;1753364;82;21456;-90
2021/11/03 07:07:41;;;;;;;49.05;32.75;;;;;;;3.21;99.82;99102.42;1753754;82;20957;-90
2021/11/03 07:10:10;;;;;;;48.60;34.15;;;;;;;3.27;100.00;99109.87;1753651;82;21033;-90
2021/11/03 07:12:37;;;;;;;40.05;28.00;;;;;;;3.33;100.00;99103.92;1730266;82;21006;-89
2021/11/03 07:15:05;;;;;;;49.33;31.02;;;;;;;3.39;100.00;99103.52;1754036;82;21059;-90
2021/11/03 07:17:32;;;;;;;63.98;40.95;;;;;;;3.45;100.00;99108.34;1753038;82;21001;-90
2021/11/03 07:19:59;;;;;;;68.15;44.48;;;;;;;3.51;100.00;99106.19;1753834;82;21004;-90
2021/11/03 07:22:26;;;;;;;61.00;40.85;;;;;;;3.60;100.00;99111.31;1753222;82;21025;-89
2021/11/03 07:24:54;;;;;;;74.47;43.70;;;;;;;3.69;100.00;99109.90;1753762;82;21048;-90
2021/11/03 07:27:21;;;;;;;64.15;38.95;;;;;;;3.78;100.00;99111.06;1753200;82;21065;-90
2021/11/03 07:29:48;;;;;;;60.15;35.98;;;;;;;3.86;100.00;99114.04;1753479;82;21504;-90
2021/11/03 07:32:17;;;;;;;54.70;34.67;;;;;;;3.94;100.00;99122.20;1753540;82;21543;-90
2021/11/03 07:34:44;;;;;;;49.10;33.02;;;;;;;4.02;100.00;99117.81;1753306;82;21566;-90
2021/11/03 07:37:11;;;;;;;52.25;35.52;;;;;;;4.09;100.00;99119.08;1753711;82;22192;-90
2021/11/03 07:39:38;;;;;;;42.55;27.85;;;;;;;4.15;100.00;99119.52;1750063;82;21027;-90
2021/11/03 07:42:05;;;;;;;41.65;31.55;;;;;;;4.22;100.00;99119.95;1748160;82;21027;-90
2021/11/03 07:44:33;;;;;;;42.53;30.52;;;;;;;4.31;100.00;99125.88;1748101;82;20990;-90
2021/11/03 07:47:00;;;;;;;38.42;27.25;;;;;;;4.41;100.00;99132.64;1747599;82;20995;-90
2021/11/03 07:49:27;;;;;;;47.80;29.20;;;;;;;4.50;100.00;99132.01;1747994;82;21610;-90
2021/11/03 07:51:54;;;;;;;44.95;29.23;;;;;;;4.58;100.00;99130.21;1747734;82;21455;-90
2021/11/03 07:54:21;;;;;;;42.53;28.70;;;;;;;4.67;100.00;99129.12;1748372;82;21506;-89
2021/11/03 07:56:48;;;;;;;42.13;28.60;;;;;;;4.77;100.00;99135.02;1747911;82;20963;-90
2021/11/03 07:59:18;;;;;;;44.13;29.95;;;;;;;4.88;100.00;99140.37;1748011;82;21500;-90
2021/11/03 08:01:45;;;;;;;45.33;30.52;;;;;;;4.98;100.00;99142.72;1753815;80;21025;-90
2021/11/03 08:04:12;;;;;;;45.90;30.65;;;;;;;5.09;100.00;99152.44;1778632;81;21519;-90
2021/11/03 08:06:40;;;;;;;43.38;29.35;;;;;;;5.19;100.00;99150.86;1778808;81;20994;-90
2021/11/03 08:09:08;;;;;;;42.10;30.50;;;;;;;5.28;100.00;99148.09;1778589;81;21008;-90
2021/11/03 08:11:54;;;;;;;42.78;29.48;;;;;;;5.37;100.00;99149.59;1778535;81;21017;-90
2021/11/03 08:14:23;;;;;;;42.10;29.23;;;;;;;5.49;100.00;99155.73;1778178;80;21014;-90
2021/11/03 08:17:04;;;;;;;49.20;30.37;;;;;;;5.63;100.00;99152.17;1741545;82;21029;-90
2021/11/03 08:19:43;;;;;;;44.60;31.12;;;;;;;5.75;100.00;99162.22;1741860;82;20998;-90
2021/11/03 08:22:11;;;;;;;44.27;28.83;;;;;;;5.90;100.00;99165.06;1741274;82;21069;-90
2021/11/03 08:24:39;;;;;;;34.20;24.57;;;;;;;6.04;100.00;99171.95;1741883;82;21599;-90
2021/11/03 08:27:08;;;;;;;35.10;23.15;;;;;;;6.18;100.00;99174.41;1701243;82;21483;-90
2021/11/03 08:29:38;;;;;;;35.83;24.45;;;;;;;6.34;100.00;99165.78;1699515;84;21039;-91
2021/11/03 08:32:06;;;;;;;45.83;31.93;;;;;;;6.52;100.00;99167.54;1758070;81;21049;-89
2021/11/03 08:34:34;;;;;;;44.27;32.50;;;;;;;6.69;100.00;99168.07;1755780;81;21044;-90
2021/11/03 08:37:06;;;;;;;36.13;27.32;;;;;;;6.82;100.00;99163.58;1756370;81;20950;-90
2021/11/03 08:39:35;;;;;;;30.40;24.92;;;;;;;6.93;100.00;99157.03;1760371;81;20989;-90
2021/11/03 08:42:03;;;;;;;26.00;19.60;;;;;;;7.08;100.00;99157.66;1758158;81;21298;-90
2021/11/03 08:44:30;;;;;;;25.85;19.48;;;;;;;7.22;100.00;99165.30;1749560;80;21061;-90
2021/11/03 08:46:59;;;;;;;22.35;18.17;;;;;;;7.35;100.00;99166.50;1755960;80;20962;-90
2021/11/03 08:49:26;;;;;;;20.57;16.30;;;;;;;7.47;100.00;99161.61;1764495;81;21037;-90
2021/11/03 08:51:54;;;;;;;19.60;15.80;;;;;;;7.61;100.00;99170.20;1758622;80;21441;-90
2021/11/03 08:54:24;;;;;;;21.65;16.87;;;;;;;7.72;100.00;99171.00;1770960;80;21500;-90
2021/11/03 08:56:56;;;;;;;27.85;21.48;;;;;;;7.84;100.00;99175.77;1784000;80;20992;-90
2021/11/03 08:59:27;;;;;;;33.38;25.95;;;;;;;7.96;100.00;99172.63;1784574;80;21024;-89
2021/11/03 09:02:04;;;;;;;23.38;17.67;;;;;;;8.08;100.00;99173.45;1760100;80;21041;-91
2021/11/03 09:04:40;;;;;;;25.52;20.80;;;;;;;8.17;99.72;99170.91;1753345;81;20966;-90
2021/11/03 09:07:12;;;;;;;24.25;18.52;;;;;;;8.28;99.79;99171.35;1755893;81;21852;-90
2021/11/03 09:09:47;;;;;;;23.70;20.50;;;;;;;8.39;99.25;99162.16;1759241;81;21001;-90
2021/11/03 09:12:25;;;;;;;27.48;20.20;;;;;;;8.51;99.43;99161.61;1760005;81;21041;-91
2021/11/03 09:15:03;;;;;;;22.62;18.52;;;;;;;8.65;98.98;99155.20;1756655;81;21017;-91
2021/11/03 09:17:39;;;;;;;21.42;17.15;;;;;;;8.75;98.21;99148.22;1755263;81;21001;-90
2021/11/03 09:20:15;;;;;;;20.43;15.72;;;;;;;8.88;97.91;99151.97;1753645;81;20974;-90
2021/11/03 09:22:57;;;;;;;18.30;14.75;;;;;;;8.99;97.69;99155.86;1757188;81;20992;-90
2021/11/03 09:25:33;;;;;;;14.25;12.10;;;;;;;9.18;97.51;99157.77;1756049;81;20974;-90
2021/11/03 09:28:11;;;;;;;14.85;12.07;;;;;;;9.29;97.15;99156.84;1764322;81;20986;-91
2021/11/03 09:30:46;;;;;;;15.05;12.47;;;;;;;9.37;96.63;99155.20;1756384;81;21062;-90
2021/11/03 09:33:25;;;;;;;9.18;8.20;;;;;;;9.47;96.86;99152.61;1755670;81;21453;-90
2021/11/03 09:36:00;;;;;;;10.18;8.25;;;;;;;9.57;95.65;99153.48;1761279;81;21022;-91
2021/11/03 09:38:37;;;;;;;8.83;5.97;;;;;;;9.65;95.64;99150.20;1756196;81;20973;-89
2021/11/03 09:41:19;;;;;;;8.65;6.00;;;;;;;9.74;95.00;99157.76;1752616;81;21012;-90
2021/11/03 09:44:02;;;;;;;5.58;4.85;;;;;;;9.80;94.95;99159.37;1705090;82;21502;-90
2021/11/03 09:46:43;;;;;;;7.75;4.97;;;;;;;9.92;94.49;99151.38;1754820;81;21001;-91
2021/11/03 09:49:36;;;;;;;5.85;4.65;;;;;;;10.01;94.10;99152.70;1754154;81;21511;-90
2021/11/03 09:52:32;;;;;;;6.70;5.35;;;;;;;10.11;93.29;99148.77;1755625;81;21088;-91
2021/11/03 09:55:24;;;;;;;9.70;5.55;;;;;;;10.21;92.52;99151.42;1723447;80;21520;-89
2021/11/03 09:58:03;;;;;;;5.03;4.35;;;;;;;10.30;92.96;99143.55;1757212;80;21037;-88
2021/11/03 10:00:49;;;;;;;3.60;3.20;;;;;;;10.40;92.00;99134.78;1759402;81;21535;-90
2021/11/03 10:03:43;;;;;;;3.45;3.08;;;;;;;10.42;91.39;99136.80;1759116;80;21011;-90
2021/11/03 10:06:38;;;;;;;5.22;3.37;;;;;;;10.49;91.48;99140.55;1751640;81;21045;-89
2021/11/03 10:09:13;;;;;;;3.25;2.35;;;;;;;10.57;90.61;99131.46;1696871;84;21057;-89
2021/11/03 10:11:53;;;;;;;4.25;3.00;;;;;;;10.60;90.16;99131.19;1699286;83;21001;-90
2021/11/03 10:14:29;;;;;;;5.60;5.05;;;;;;;10.64;89.78;99129.92;1690933;83;21473;-89
2021/11/03 10:17:07;;;;;;;6.12;4.03;;;;;;;10.72;90.16;99126.08;1719141;82;20986;-90
2021/11/03 10:19:42;;;;;;;3.35;2.40;;;;;;;10.82;90.27;99122.10;1688332;84;21046;-88
2021/11/03 10:22:32;;;;;;;5.25;2.40;;;;;;;10.95;90.18;99125.76;1698596;84;21074;-91
2021/11/03 10:25:27;;;;;;;3.50;2.42;;;;;;;11.01;88.99;99127.83;1753604;81;21053;-89
2021/11/03 10:27:59;;;;;;;4.10;3.22;;;;;;;11.02;88.60;99127.70;1761563;81;20994;-89
2021/11/03 10:30:40;;;;;;;4.97;3.13;;;;;;;11.03;88.03;99122.76;1716583;82;21518;-90
2021/11/03 10:33:18;;;;;;;6.08;2.98;;;;;;;11.08;88.36;99119.67;1743535;81;21520;-89
2021/11/03 10:36:02;;;;;;;3.90;2.65;;;;;;;11.15;87.88;99110.69;1766906;81;21575;-90
2021/11/03 10:38:34;;;;;;;3.15;2.10;;;;;;;11.19;88.38;99108.95;1762421;80;20950;-89
2021/11/03 10:41:06;;;;;;;2.75;2.17;;;;;;;11.26;87.03;99108.71;1747938;81;21037;-89
2021/11/03 10:43:42;;;;;;;3.00;2.00;;;;;;;11.33;87.22;99107.64;1770841;81;20954;-90
2021/11/03 10:46:26;;;;;;;2.75;2.33;;;;;;;11.35;86.58;99104.84;1764273;81;20997;-90
2021/11/03 10:49:22;;;;;;;3.62;2.60;;;;;;;11.37;86.63;99102.90;1762806;81;21014;-90
2021/11/03 10:51:59;;;;;;;5.53;3.12;;;;;;;11.40;86.47;99102.61;1706642;82;20963;-89
2021/11/03 10:54:41;;;;;;;2.92;2.12;;;;;;;11.46;86.71;99104.67;1756126;81;21017;-89
2021/11/03 10:57:37;;;;;;;2.75;1.70;;;;;;;11.49;86.15;99099.92;1768226;80;20981;-88
2021/11/03 11:00:19;;;;;;;4.03;2.17;;;;;;;11.50;85.28;99088.86;1757017;81;21005;-88
2021/11/03 11:02:57;;;;;;;3.65;2.10;;;;;;;11.49;85.22;99089.35;1757013;81;21073;-89
2021/11/03 11:05:27;;;;;;;3.45;2.00;;;;;;;11.54;85.21;99092.86;1697554;83;21027;-90
2021/11/03 11:08:03;;;;;;;3.95;2.02;;;;;;;11.56;84.86;99090.92;1756319;81;21455;-88
2021/11/03 11:10:41;;;;;;;2.42;1.70;;;;;;;11.57;84.24;99085.96;1756466;81;21555;-90
2021/11/03 11:13:13;;;;;;;3.60;2.45;;;;;;;11.59;84.39;99085.34;1762088;81;21487;-89
2021/11/03 11:16:04;;;;;;;3.65;2.25;;;;;;;11.61;84.63;99075.44;1778251;81;21056;-90
2021/11/03 11:18:44;;;;;;;7.17;3.40;;;;;;;11.61;83.87;99079.40;1779440;81;20989;-88
2021/11/03 11:21:20;;;;;;;6.72;3.50;;;;;;;11.63;84.36;99084.05;1779250;81;20983;-89
2021/11/03 11:23:52;;;;;;;5.85;3.92;;;;;;;11.65;84.92;99081.28;1779538;81;21002;-88
2021/11/03 11:26:43;;;;;;;3.90;2.85;;;;;;;11.68;85.14;99087.09;1742315;82;21021;-88
2021/11/03 11:29:47;;;;;;;4.33;2.40;;;;;;;11.75;84.31;99091.30;1742332;82;21042;-88
2021/11/03 11:32:20;;;;;;;;;;;;;;;11.78;84.11;99082.22;1744689;82;21029;-88
2021/11/03 11:35:20;;;;;;;3.77;2.50;;;;;;;11.78;83.70;99078.25;1742163;82;20110;-88
2021/11/03 11:38:04;;;;;;;8.18;3.55;;;;;;;11.77;83.73;99078.75;1719727;82;21053;-88
2021/11/03 11:40:48;;;;;;;6.40;4.20;;;;;;;11.76;83.20;99075.77;1742031;82;20982;-89
2021/11/03 11:43:39;;;;;;;4.67;2.65;;;;;;;11.75;82.34;99084.69;1778413;80;20993;-89
2021/11/03 11:46:19;;;;;;;3.92;2.80;;;;;;;11.75;82.08;99084.69;1742204;82;21081;-88
2021/11/03 11:49:00;;;;;;;4.00;2.95;;;;;;;11.76;82.41;99083.70;1778881;80;21511;-88